Williamstown, MA

2:23 AM EST on December 06, 2016 (GMT -0500)
North Williamstown | | Change Station

Elev 636 ft 42.73 °N, 73.20 °W | Updated 15 seconds ago

Overcast
Overcast
36.9 °F
Feels Like 37 °F
N
0.0
Wind Variable Wind from WNW
Gusts 0.0 mph

Today
High -- | Low -- °F
--% Chance of Precip.
Yesterday
High -- | Low -- °F
Precip. -- in
Pressure 30.09 in
Visibility 10.0 miles
Clouds Overcast 1800 ft
Windchill 37 °F
Dew Point 14 °F
Humidity 38%
Rainfall 0.00 in
Snow Depth Not available.
7:09 AM 4:19 PM
Waxing Crescent, 39% visible
METAR KAQW 060652Z AUTO 28006KT 10SM OVC018 03/M01 A3006 RMK AO2 SLP187 T00281011
Pressure 30.09 in
Visibility 10.0 miles
Clouds Overcast 1800 ft
Windchill 37 °F
Dew Point 14 °F
Humidity 38%
Rainfall 0.00 in
Snow Depth Not available.
7:09 AM 4:19 PM
Waxing Crescent, 39% visible
METAR KAQW 060652Z AUTO 28006KT 10SM OVC018 03/M01 A3006 RMK AO2 SLP187 T00281011

10-Day Weather Forecast

Almanac

Astronomy

Dec. 06, 2016 Rise Set
Actual Time
Civil Twilight
Nautical Twilight
Astronomical Twilight
Moon
Length of Visible Light
Length of Day
Tomorrow will be .
, % of the Moon is Illuminated

Today's Extremes

State Highs State Lows

Community

WunderPhotos

Upload Photos

1,955,930 photos uploaded!

WunderBlog® & News

Nearby

Air Quality

  Air Quality AQ Index Pollutant
Not available.

Snow Depth

Station Depth Elevation

Earthquake Activity

City Distance Mag. Time & Date
Minimum magnitude displayed is 2.5.

Coastal Water Temperatures

Place Temperature

Stations

Nearby Weather Stations

Station Location Temp. Windchill Dew Point Humidity Wind Precip. Elev Updated Type
                   

Watches & Warnings

There are currently no watches in effect.